createdAt,value
2019-05-03T00:03:29.062Z,98553.83
2019-05-03T00:09:33.635Z,98556.74
2019-05-03T00:15:38.377Z,98569.69
2019-05-03T00:21:43.015Z,98565.09
2019-05-03T00:27:47.600Z,98569.88
2019-05-03T00:33:53.897Z,98570.58
2019-05-03T00:40:06.186Z,98570.50
2019-05-03T00:46:12.500Z,98580.09
2019-05-03T00:52:17.053Z,98571.95
2019-05-03T00:58:22.525Z,98570.73
2019-05-03T01:04:27.382Z,98570.63
2019-05-03T01:10:33.106Z,98574.63
2019-05-03T01:16:37.927Z,98570.50
2019-05-03T01:22:42.582Z,98580.38
2019-05-03T01:28:47.227Z,98579.84
2019-05-03T01:34:52.412Z,98588.02
2019-05-03T01:40:57.131Z,98589.34
2019-05-03T01:47:03.337Z,98596.11
2019-05-03T01:53:09.572Z,98601.48
2019-05-03T01:59:14.155Z,98601.65
2019-05-03T02:05:36.916Z,98603.39
2019-05-03T02:11:42.130Z,98611.10
2019-05-03T02:17:47.008Z,98616.96
2019-05-03T02:23:52.057Z,98626.02
2019-05-03T02:29:56.823Z,98626.45
2019-05-03T02:36:03.760Z,98634.05
2019-05-03T02:42:11.387Z,98635.39
2019-05-03T02:48:25.588Z,98644.02
2019-05-03T02:54:30.577Z,98656.88
2019-05-03T03:00:56.047Z,98651.11
2019-05-03T03:07:01.698Z,98654.30
2019-05-03T03:13:09.164Z,98656.45
2019-05-03T03:19:16.935Z,98664.45
2019-05-03T03:25:26.219Z,98661.09
2019-05-03T03:32:00.977Z,98669.39
2019-05-03T03:38:05.849Z,98669.33
2019-05-03T03:44:11.925Z,98670.96
2019-05-03T03:50:16.629Z,98689.72
2019-05-03T03:56:21.971Z,98692.78
2019-05-03T04:02:26.733Z,98699.52
2019-05-03T04:08:31.535Z,98702.84
2019-05-03T04:14:50.014Z,98700.46
2019-05-03T04:20:55.960Z,98708.57
2019-05-03T04:27:18.527Z,98713.60
2019-05-03T04:33:15.998Z,98719.15
2019-05-03T04:39:20.451Z,98734.16
2019-05-03T04:45:25.839Z,98744.69
2019-05-03T04:51:30.498Z,98745.94
2019-05-03T04:57:42.222Z,98756.68
2019-05-03T05:03:41.319Z,98762.02
2019-05-03T05:09:45.918Z,98765.61
2019-05-03T05:15:50.466Z,98776.50
2019-05-03T05:21:56.725Z,98788.75
2019-05-03T05:28:04.718Z,98794.63
2019-05-03T05:34:09.567Z,98800.71
2019-05-03T05:40:15.636Z,98797.81
2019-05-03T05:46:21.934Z,98810.17
2019-05-03T05:52:26.501Z,98810.02
2019-05-03T05:58:34.671Z,98821.00
2019-05-03T06:04:39.019Z,98817.58
2019-05-03T06:11:00.532Z,98817.13
2019-05-03T06:17:18.961Z,98828.96
2019-05-03T06:23:25.171Z,98837.87
2019-05-03T06:29:29.718Z,98837.39
2019-05-03T06:35:34.615Z,98843.83
2019-05-03T06:41:39.425Z,98851.19
2019-05-03T06:47:45.985Z,98846.38
2019-05-03T06:53:50.719Z,98847.84
2019-05-03T07:00:15.358Z,98853.06
2019-05-03T07:06:33.368Z,98857.63
2019-05-03T07:12:29.315Z,98854.26
2019-05-03T07:18:35.202Z,98859.98
2019-05-03T07:24:40.896Z,98868.62
2019-05-03T07:30:45.732Z,98864.39
2019-05-03T07:36:50.283Z,98861.84
2019-05-03T07:42:55.679Z,98859.61
2019-05-03T07:49:00.317Z,98868.70
2019-05-03T07:55:06.626Z,98860.19
2019-05-03T08:01:14.837Z,98872.23
2019-05-03T08:07:22.406Z,98875.04
2019-05-03T08:13:25.482Z,98868.31
2019-05-03T08:19:30.204Z,98865.55
2019-05-03T08:25:35.474Z,98848.00
2019-05-03T08:31:45.459Z,98842.06
2019-05-03T08:37:51.785Z,98845.60
2019-05-03T08:43:56.411Z,98844.66
2019-05-03T08:50:00.993Z,98849.86
2019-05-03T08:56:08.926Z,98844.22
2019-05-03T09:02:16.414Z,98851.98
2019-05-03T09:08:19.895Z,98851.30
2019-05-03T09:14:24.686Z,98853.62
2019-05-03T09:20:32.338Z,98848.48
2019-05-03T09:26:37.078Z,98854.66
2019-05-03T09:32:41.636Z,98848.80
2019-05-03T09:38:46.339Z,98845.57
2019-05-03T09:44:52.558Z,98851.03
2019-05-03T09:50:57.297Z,98840.50
2019-05-03T09:57:01.853Z,98843.69
2019-05-03T10:03:06.647Z,98840.74
2019-05-03T10:09:11.277Z,98847.83
2019-05-03T10:15:37.064Z,98846.31
2019-05-03T10:21:44.888Z,98852.16
2019-05-03T10:27:49.524Z,98842.33
2019-05-03T10:33:55.735Z,98845.89
2019-05-03T10:40:05.149Z,98848.25
2019-05-03T10:46:08.754Z,98836.13
2019-05-03T10:52:15.034Z,98824.11
2019-05-03T10:58:20.189Z,98834.33
2019-05-03T11:04:25.515Z,98836.66
2019-05-03T11:10:30.157Z,98827.05
2019-05-03T11:16:35.291Z,98830.14
2019-05-03T11:22:40.009Z,98825.25
2019-05-03T11:28:44.909Z,98820.00
2019-05-03T11:34:51.268Z,98819.08
2019-05-03T11:40:56.119Z,98820.91
2019-05-03T11:47:00.868Z,98814.53
2019-05-03T11:53:05.613Z,98818.00
2019-05-03T11:59:10.161Z,98828.11
2019-05-03T12:05:24.481Z,98830.80
2019-05-03T12:11:30.898Z,98823.29
2019-05-03T12:17:50.404Z,98828.78
2019-05-03T12:23:45.855Z,98825.91
2019-05-03T12:29:52.336Z,98810.78
2019-05-03T12:35:56.361Z,98809.18
2019-05-03T12:42:01.004Z,98817.73
2019-05-03T12:48:05.933Z,98818.59
2019-05-03T12:54:10.566Z,98808.98
2019-05-03T13:00:15.623Z,98809.67
2019-05-03T13:06:20.364Z,98802.53
2019-05-03T13:12:26.576Z,98793.00
2019-05-03T13:18:31.127Z,98792.64
2019-05-03T13:24:35.747Z,98792.36
2019-05-03T13:30:40.300Z,98785.14
2019-05-03T13:36:45.646Z,98778.12
2019-05-03T13:42:57.661Z,98780.16
2019-05-03T13:48:56.651Z,98765.40
2019-05-03T13:55:01.244Z,98761.42
2019-05-03T14:01:06.065Z,98757.28
2019-05-03T14:07:10.777Z,98757.61
2019-05-03T14:13:15.354Z,98749.50
2019-05-03T14:19:30.213Z,98750.70
2019-05-03T14:25:35.182Z,98744.87
2019-05-03T14:31:39.840Z,98742.85
2019-05-03T14:37:45.859Z,98748.91
2019-05-03T14:43:50.804Z,98739.90
2019-05-03T14:49:55.521Z,98733.48
2019-05-03T14:56:07.847Z,98736.85
2019-05-03T15:02:39.494Z,98732.80
2019-05-03T15:08:32.267Z,98737.89
2019-05-03T15:14:36.900Z,98736.02
2019-05-03T15:20:41.515Z,98732.94
2019-05-03T15:26:46.079Z,98727.39
2019-05-03T15:32:59.491Z,98722.97
2019-05-03T15:38:56.921Z,98712.63
2019-05-03T15:45:05.088Z,98702.78
2019-05-03T15:51:09.429Z,98698.20
2019-05-03T15:57:14.452Z,98699.05
2019-05-03T16:03:19.205Z,98697.68
2019-05-03T16:09:24.618Z,98693.47
2019-05-03T16:15:29.294Z,98689.66
2019-05-03T16:21:34.126Z,98681.36
2019-05-03T16:27:41.925Z,98674.59
2019-05-03T16:33:46.550Z,98664.23
2019-05-03T16:39:51.161Z,98660.79
2019-05-03T16:45:55.716Z,98667.66
2019-05-03T16:52:00.280Z,98663.61
2019-05-03T16:58:05.074Z,98659.08
2019-05-03T17:04:25.143Z,98662.27
2019-05-03T17:10:34.807Z,98659.81
2019-05-03T17:16:39.572Z,98657.88
2019-05-03T17:22:45.027Z,98655.92
2019-05-03T17:28:49.832Z,98652.98
2019-05-03T17:34:54.863Z,98652.78
2019-05-03T17:41:14.867Z,98644.59
2019-05-03T17:47:19.595Z,98642.63
2019-05-03T17:53:35.816Z,98647.25
2019-05-03T17:59:45.259Z,98644.55
2019-05-03T18:05:54.339Z,98646.31
2019-05-03T18:12:04.662Z,98652.48
2019-05-03T18:18:09.363Z,98654.33
2019-05-03T18:24:15.375Z,98654.61
2019-05-03T18:30:20.788Z,98653.80
2019-05-03T18:36:25.441Z,98658.41
2019-05-03T18:42:35.277Z,98650.30
2019-05-03T18:48:39.932Z,98648.33
2019-05-03T18:54:44.579Z,98662.19
2019-05-03T19:00:49.199Z,98659.63
2019-05-03T19:07:03.775Z,98663.72
2019-05-03T19:13:00.037Z,98665.30
2019-05-03T19:19:06.166Z,98662.84
2019-05-03T19:25:10.867Z,98656.12
2019-05-03T19:31:15.500Z,98659.44
2019-05-03T19:37:20.040Z,98656.23
2019-05-03T19:43:27.039Z,98647.91
2019-05-03T19:49:30.958Z,98646.23
2019-05-03T19:55:35.649Z,98650.28
2019-05-03T20:01:41.848Z,98642.98
2019-05-03T20:07:57.129Z,98641.73
2019-05-03T20:14:01.543Z,98640.25
2019-05-03T20:20:07.780Z,98640.17
2019-05-03T20:26:12.324Z,98630.91
2019-05-03T20:32:17.345Z,98629.20
2019-05-03T20:38:21.888Z,98637.33
2019-05-03T20:44:28.076Z,98629.61
2019-05-03T20:50:32.622Z,98622.53
2019-05-03T20:56:37.186Z,98618.86
2019-05-03T21:02:51.558Z,98614.41
2019-05-03T21:08:53.028Z,98630.17
2019-05-03T21:14:55.645Z,98626.12
2019-05-03T21:21:04.660Z,98623.47
2019-05-03T21:27:09.223Z,98623.59
2019-05-03T21:33:15.648Z,98616.28
2019-05-03T21:39:20.015Z,98612.27
2019-05-03T21:45:26.201Z,98611.14
2019-05-03T21:51:30.818Z,98612.99
2019-05-03T21:57:35.350Z,98610.62
2019-05-03T22:03:40.130Z,98611.13
2019-05-03T22:09:45.315Z,98600.34
2019-05-03T22:15:51.702Z,98600.43
2019-05-03T22:22:00.349Z,98599.92
2019-05-03T22:28:07.107Z,98602.70
2019-05-03T22:34:11.246Z,98599.01
2019-05-03T22:40:15.854Z,98600.23
2019-05-03T22:46:20.394Z,98595.95
2019-05-03T22:52:25.777Z,98596.95
2019-05-03T22:58:30.496Z,98586.70
2019-05-03T23:04:35.580Z,98585.33
2019-05-03T23:10:40.355Z,98578.32
2019-05-03T23:16:45.129Z,98571.69
2019-05-03T23:22:49.893Z,98568.89
2019-05-03T23:28:55.138Z,98562.38
2019-05-03T23:34:59.865Z,98567.89
2019-05-03T23:41:04.931Z,98567.79
2019-05-03T23:47:11.248Z,98578.44
2019-05-03T23:53:15.788Z,98564.70
2019-05-03T23:59:20.319Z,98563.95
